createdAt,value
2022-12-03T00:00:24.390Z,92.33
2022-12-03T00:01:56.428Z,92.19
2022-12-03T00:03:29.464Z,92.32
2022-12-03T00:05:01.815Z,92.39
2022-12-03T00:06:34.846Z,92.27
2022-12-03T00:08:07.208Z,92.12
2022-12-03T00:09:39.281Z,92.22
2022-12-03T00:11:11.277Z,92.16
2022-12-03T00:12:43.255Z,92.18
2022-12-03T00:14:15.411Z,92.28
2022-12-03T00:15:47.465Z,92.19
2022-12-03T00:17:19.557Z,92.10
2022-12-03T00:18:51.560Z,92.42
2022-12-03T00:20:24.924Z,92.29
2022-12-03T00:21:56.973Z,92.59
2022-12-03T00:23:29.014Z,92.45
2022-12-03T00:25:01.055Z,92.41
2022-12-03T00:26:33.072Z,92.63
2022-12-03T00:28:05.251Z,92.65
2022-12-03T00:29:37.292Z,92.48
2022-12-03T00:31:09.412Z,92.46
2022-12-03T00:32:41.561Z,92.51
2022-12-03T00:35:46.646Z,92.67
2022-12-03T00:37:18.958Z,92.58
2022-12-03T00:38:51.032Z,92.68
2022-12-03T00:40:23.080Z,92.40
2022-12-03T00:41:55.089Z,92.27
2022-12-03T00:43:27.152Z,92.35
2022-12-03T00:44:59.264Z,92.35
2022-12-03T00:46:31.668Z,92.36
2022-12-03T00:48:04.047Z,92.25
2022-12-03T00:49:36.383Z,92.25
2022-12-03T00:51:08.356Z,92.22
2022-12-03T00:52:40.488Z,92.20
2022-12-03T00:54:12.534Z,92.39
2022-12-03T00:55:44.859Z,92.18
2022-12-03T00:57:16.906Z,92.24
2022-12-03T00:58:48.861Z,92.12
2022-12-03T01:00:24.847Z,92.36
2022-12-03T01:01:57.360Z,92.34
2022-12-03T01:05:08.548Z,92.34
2022-12-03T01:06:40.642Z,92.50
2022-12-03T01:08:12.826Z,92.21
2022-12-03T01:09:44.861Z,92.35
2022-12-03T01:11:35.626Z,92.41
2022-12-03T01:13:07.734Z,92.64
2022-12-03T01:14:39.779Z,92.72
2022-12-03T01:16:11.954Z,92.52
2022-12-03T01:17:44.016Z,92.65
2022-12-03T01:19:19.813Z,92.63
2022-12-03T01:20:51.793Z,92.49
2022-12-03T01:22:23.867Z,92.57
2022-12-03T01:23:55.907Z,92.73
2022-12-03T01:25:27.971Z,92.48
2022-12-03T01:27:01.157Z,92.60
2022-12-03T01:28:33.187Z,92.48
2022-12-03T01:30:06.420Z,92.65
2022-12-03T01:31:56.826Z,92.48
2022-12-03T01:33:28.814Z,92.52
2022-12-03T01:35:00.972Z,92.50
2022-12-03T01:36:34.603Z,92.41
2022-12-03T01:38:06.504Z,92.63
2022-12-03T01:39:38.580Z,92.50
2022-12-03T01:41:12.042Z,92.68
2022-12-03T01:42:44.088Z,92.42
2022-12-03T01:44:23.299Z,92.53
2022-12-03T01:45:55.405Z,92.36
2022-12-03T01:47:37.475Z,92.47
2022-12-03T01:49:25.539Z,92.35
2022-12-03T01:50:57.603Z,92.21
2022-12-03T01:52:33.197Z,92.41
2022-12-03T01:54:05.302Z,92.51
2022-12-03T01:55:37.962Z,92.36
2022-12-03T01:57:23.294Z,92.43
2022-12-03T01:58:56.530Z,92.41
2022-12-03T02:00:29.458Z,92.39
2022-12-03T02:02:12.550Z,92.31
2022-12-03T02:03:45.995Z,92.38
2022-12-03T02:05:19.844Z,92.27
2022-12-03T02:06:51.860Z,92.43
2022-12-03T02:08:42.039Z,92.63
2022-12-03T02:10:15.518Z,92.55
2022-12-03T02:11:49.339Z,92.65
2022-12-03T02:13:21.330Z,92.42
2022-12-03T02:14:54.010Z,92.49
2022-12-03T02:16:26.341Z,92.63
2022-12-03T02:17:58.477Z,92.42
2022-12-03T02:19:30.596Z,92.65
2022-12-03T02:21:14.364Z,92.64
2022-12-03T02:23:08.067Z,92.59
2022-12-03T02:24:54.545Z,92.58
2022-12-03T02:26:26.741Z,92.60
2022-12-03T02:28:00.598Z,92.58
2022-12-03T02:29:32.686Z,92.55
2022-12-03T02:31:05.644Z,92.47
2022-12-03T02:32:38.005Z,92.43
2022-12-03T02:34:11.291Z,92.50
2022-12-03T02:35:43.439Z,92.32
2022-12-03T02:37:22.438Z,92.37
2022-12-03T02:38:54.497Z,92.65
2022-12-03T02:40:29.168Z,92.51
2022-12-03T02:42:19.803Z,92.39
2022-12-03T02:43:54.200Z,92.29
2022-12-03T02:45:33.132Z,92.54
2022-12-03T02:47:05.297Z,92.10
2022-12-03T02:48:39.034Z,92.18
2022-12-03T02:50:13.835Z,92.46
2022-12-03T02:51:45.940Z,92.55
2022-12-03T02:53:22.228Z,92.55
2022-12-03T02:54:57.512Z,92.27
2022-12-03T02:56:32.325Z,92.27
2022-12-03T02:58:04.922Z,92.28
2022-12-03T02:59:36.941Z,92.07
2022-12-03T03:01:09.988Z,92.28
2022-12-03T03:02:42.464Z,92.55
2022-12-03T03:04:14.530Z,92.59
2022-12-03T03:05:47.423Z,92.59
2022-12-03T03:07:19.384Z,92.85
2022-12-03T03:10:29.174Z,92.84
2022-12-03T03:12:01.246Z,93.06
2022-12-03T03:13:34.514Z,92.90
2022-12-03T03:15:07.853Z,92.81
2022-12-03T03:16:40.015Z,93.08
2022-12-03T03:18:13.927Z,93.09
2022-12-03T03:19:46.049Z,93.21
2022-12-03T03:21:18.138Z,93.21
2022-12-03T03:22:50.115Z,93.27
2022-12-03T03:24:22.949Z,93.34
2022-12-03T03:26:06.177Z,93.44
2022-12-03T03:27:39.388Z,93.29
2022-12-03T03:29:11.484Z,93.54
2022-12-03T03:30:44.294Z,93.53
2022-12-03T03:32:16.365Z,93.46
2022-12-03T03:33:50.238Z,93.25
2022-12-03T03:35:24.031Z,93.29
2022-12-03T03:36:56.188Z,93.43
2022-12-03T03:39:59.970Z,93.46
2022-12-03T03:41:33.376Z,93.27
2022-12-03T03:43:06.001Z,93.36
2022-12-03T03:44:37.950Z,93.43
2022-12-03T03:46:11.218Z,93.29
2022-12-03T03:47:43.313Z,93.15
2022-12-03T03:49:15.572Z,93.31
2022-12-03T03:50:47.871Z,93.05
2022-12-03T03:52:20.275Z,93.33
2022-12-03T03:53:52.522Z,93.25
2022-12-03T03:55:24.600Z,93.19
2022-12-03T03:56:56.749Z,93.17
2022-12-03T03:58:28.720Z,93.17
2022-12-03T04:00:05.232Z,93.31
2022-12-03T04:01:37.492Z,93.29
2022-12-03T04:03:10.451Z,93.30
2022-12-03T04:04:43.486Z,93.32
2022-12-03T04:06:15.537Z,93.21
2022-12-03T04:07:47.717Z,93.56
2022-12-03T04:09:19.718Z,93.31
2022-12-03T04:11:10.072Z,93.55
2022-12-03T04:12:57.378Z,93.32
2022-12-03T04:14:29.694Z,93.18
2022-12-03T04:16:01.775Z,93.25
2022-12-03T04:17:33.757Z,92.94
2022-12-03T04:19:05.740Z,92.86
2022-12-03T04:20:40.832Z,93.08
2022-12-03T04:22:31.667Z,93.08
2022-12-03T04:24:04.305Z,93.48
2022-12-03T04:25:54.786Z,93.19
2022-12-03T04:27:45.517Z,93.21
2022-12-03T04:29:17.650Z,93.13
2022-12-03T04:30:49.661Z,93.32
2022-12-03T04:32:40.177Z,93.17
2022-12-03T04:34:30.998Z,93.33
2022-12-03T04:36:03.021Z,93.07
2022-12-03T04:37:34.941Z,93.29
2022-12-03T04:39:07.032Z,93.38
2022-12-03T04:40:58.357Z,93.40
2022-12-03T04:42:30.516Z,93.26
2022-12-03T04:44:20.857Z,93.20
2022-12-03T04:45:52.898Z,93.20
2022-12-03T04:47:25.030Z,93.33
2022-12-03T04:48:57.069Z,93.08
2022-12-03T04:50:29.077Z,93.18
2022-12-03T04:52:01.275Z,93.53
2022-12-03T04:53:36.104Z,93.41
2022-12-03T04:55:08.869Z,93.08
2022-12-03T04:56:40.908Z,93.20
2022-12-03T04:58:13.029Z,93.25
2022-12-03T04:59:45.043Z,93.36
2022-12-03T05:01:17.268Z,93.29
2022-12-03T05:02:49.385Z,93.09
2022-12-03T05:04:21.477Z,93.21
2022-12-03T05:05:53.476Z,93.03
2022-12-03T05:07:25.472Z,93.02
2022-12-03T05:08:57.501Z,92.96
2022-12-03T05:10:29.551Z,93.09
2022-12-03T05:12:01.558Z,92.86
2022-12-03T05:13:33.790Z,92.74
2022-12-03T05:15:06.581Z,92.90
2022-12-03T05:16:39.248Z,92.63
2022-12-03T05:18:12.903Z,92.50
2022-12-03T05:20:03.588Z,92.57
2022-12-03T05:21:36.037Z,92.57
2022-12-03T05:23:13.068Z,92.74
2022-12-03T05:24:45.101Z,92.56
2022-12-03T05:26:17.065Z,92.50
2022-12-03T05:27:49.193Z,92.52
2022-12-03T05:29:21.254Z,92.51
2022-12-03T05:30:53.339Z,92.54
2022-12-03T05:32:25.355Z,92.56
2022-12-03T05:33:57.361Z,92.59
2022-12-03T05:35:29.545Z,92.58
2022-12-03T05:37:01.700Z,92.48
2022-12-03T05:38:34.044Z,92.30
2022-12-03T05:40:06.866Z,92.42
2022-12-03T05:41:57.205Z,92.44
2022-12-03T05:43:29.397Z,92.55
2022-12-03T05:45:01.509Z,92.48
2022-12-03T05:46:33.985Z,92.36
2022-12-03T05:48:08.367Z,92.41
2022-12-03T05:49:40.476Z,92.38
2022-12-03T05:51:12.607Z,92.43
2022-12-03T05:52:44.863Z,92.29
2022-12-03T05:54:16.918Z,92.28
2022-12-03T05:55:49.071Z,92.62
2022-12-03T05:57:21.123Z,92.43
2022-12-03T05:58:53.198Z,92.39
2022-12-03T06:00:34.595Z,92.50
2022-12-03T06:02:09.842Z,92.28
2022-12-03T06:03:42.052Z,92.52
2022-12-03T06:05:15.731Z,92.56
2022-12-03T06:06:47.768Z,92.55
2022-12-03T06:08:19.739Z,92.59
2022-12-03T06:09:51.780Z,92.90
2022-12-03T06:11:23.900Z,92.92
2022-12-03T06:12:56.292Z,93.04
2022-12-03T06:14:30.487Z,92.98
2022-12-03T06:16:02.512Z,92.96
2022-12-03T06:17:34.614Z,92.96
2022-12-03T06:19:06.799Z,93.01
2022-12-03T06:20:38.901Z,93.23
2022-12-03T06:23:45.693Z,93.21
2022-12-03T06:25:17.807Z,93.16
2022-12-03T06:26:49.866Z,93.41
2022-12-03T06:28:21.860Z,93.51
2022-12-03T06:29:53.895Z,93.72
2022-12-03T06:31:25.856Z,93.63
2022-12-03T06:32:58.128Z,93.62
2022-12-03T06:34:30.107Z,93.87
2022-12-03T06:36:02.141Z,93.74
2022-12-03T06:37:34.149Z,93.54
2022-12-03T06:39:06.205Z,93.89
2022-12-03T06:40:38.739Z,93.96
2022-12-03T06:42:10.689Z,93.79
2022-12-03T06:43:42.738Z,93.86
2022-12-03T06:45:14.855Z,93.82
2022-12-03T06:46:46.948Z,93.82
2022-12-03T06:48:19.017Z,93.77
2022-12-03T06:49:51.037Z,93.75
2022-12-03T06:51:23.134Z,93.61
2022-12-03T06:52:55.376Z,93.82
2022-12-03T06:54:27.546Z,93.83
2022-12-03T06:55:59.580Z,93.79
2022-12-03T06:57:31.596Z,93.79
2022-12-03T06:59:03.793Z,93.85
2022-12-03T07:00:35.927Z,94.06
2022-12-03T07:02:08.200Z,93.79
2022-12-03T07:03:40.316Z,93.83
2022-12-03T07:05:12.343Z,93.64
2022-12-03T07:06:44.601Z,93.79
2022-12-03T07:08:16.721Z,93.57
2022-12-03T07:09:48.745Z,93.72
2022-12-03T07:11:32.666Z,93.74
2022-12-03T07:13:04.892Z,93.76
2022-12-03T07:14:36.915Z,93.65
2022-12-03T07:16:09.062Z,93.76
2022-12-03T07:17:41.162Z,93.62
2022-12-03T07:19:13.307Z,93.96
2022-12-03T07:22:39.163Z,93.92
2022-12-03T07:24:11.435Z,94.03
2022-12-03T07:25:43.456Z,93.97
2022-12-03T07:27:15.584Z,93.79
2022-12-03T07:28:48.568Z,94.03
2022-12-03T07:30:20.682Z,94.00
2022-12-03T07:31:52.777Z,94.05
2022-12-03T07:33:24.924Z,94.08
2022-12-03T07:34:56.950Z,94.11
2022-12-03T07:36:29.116Z,94.32
2022-12-03T07:38:01.227Z,93.95
2022-12-03T07:39:33.320Z,94.17
2022-12-03T07:41:05.791Z,93.91
2022-12-03T07:42:37.906Z,94.12
2022-12-03T07:44:14.282Z,94.03
2022-12-03T07:45:46.890Z,94.19
2022-12-03T07:47:19.299Z,94.07
2022-12-03T07:48:51.328Z,94.17
2022-12-03T07:50:23.391Z,94.12
2022-12-03T07:51:56.442Z,94.11
2022-12-03T07:53:28.506Z,94.25
2022-12-03T07:56:44.218Z,94.02
2022-12-03T07:58:16.218Z,94.10
2022-12-03T07:59:48.209Z,94.13
2022-12-03T08:01:20.309Z,93.84
2022-12-03T08:02:52.457Z,93.77
2022-12-03T08:04:24.549Z,93.82
2022-12-03T08:05:56.588Z,93.93
2022-12-03T08:07:28.705Z,94.00
2022-12-03T08:09:00.895Z,94.01
2022-12-03T08:10:32.996Z,93.90
2022-12-03T08:12:09.023Z,93.85
2022-12-03T08:13:41.133Z,93.77
2022-12-03T08:15:16.347Z,93.75
2022-12-03T08:16:49.096Z,93.71
2022-12-03T08:18:22.317Z,93.55
2022-12-03T08:19:54.387Z,93.42
2022-12-03T08:21:37.112Z,93.47
2022-12-03T08:23:17.653Z,93.04
2022-12-03T08:24:49.641Z,92.95
2022-12-03T08:26:26.550Z,92.98
2022-12-03T08:28:19.722Z,92.94
2022-12-03T08:30:05.064Z,93.05
2022-12-03T08:31:37.582Z,92.89
2022-12-03T08:33:24.667Z,92.59
2022-12-03T08:34:56.656Z,93.09
2022-12-03T08:36:33.659Z,92.98
2022-12-03T08:38:14.863Z,92.89
2022-12-03T08:39:50.972Z,92.56
2022-12-03T08:41:42.250Z,92.41
2022-12-03T08:43:24.777Z,92.52
2022-12-03T08:44:57.182Z,92.44
2022-12-03T08:46:29.391Z,92.36
2022-12-03T08:48:04.819Z,92.29
2022-12-03T08:49:37.495Z,92.22
2022-12-03T08:51:18.769Z,92.06
2022-12-03T08:52:50.821Z,92.13
2022-12-03T08:54:23.375Z,92.08
2022-12-03T08:55:57.613Z,92.05
2022-12-03T08:57:33.808Z,91.89
2022-12-03T08:59:20.686Z,92.25
2022-12-03T09:00:57.505Z,92.34
2022-12-03T09:02:33.410Z,92.46
2022-12-03T09:04:35.349Z,92.28
2022-12-03T09:06:07.773Z,92.50
2022-12-03T09:07:39.781Z,92.12
2022-12-03T09:09:11.880Z,92.48
2022-12-03T09:10:44.045Z,92.48
2022-12-03T09:12:16.184Z,92.20
2022-12-03T09:13:48.421Z,92.31
2022-12-03T09:15:20.508Z,92.28
2022-12-03T09:16:56.211Z,92.22
2022-12-03T09:18:28.415Z,91.82
2022-12-03T09:20:00.457Z,91.93
2022-12-03T09:21:33.246Z,91.82
2022-12-03T09:23:05.290Z,91.83
2022-12-03T09:26:15.230Z,92.04
2022-12-03T09:27:47.218Z,92.33
2022-12-03T09:29:19.447Z,92.14
2022-12-03T09:30:51.479Z,92.38
2022-12-03T09:32:23.714Z,92.18
2022-12-03T09:33:56.003Z,91.95
2022-12-03T09:35:28.437Z,91.94
2022-12-03T09:37:00.864Z,91.94
2022-12-03T09:38:33.147Z,92.13
2022-12-03T09:40:06.777Z,91.96
2022-12-03T09:41:38.685Z,91.67
2022-12-03T09:43:11.946Z,91.68
2022-12-03T09:44:44.282Z,91.64
2022-12-03T09:46:16.697Z,91.52
2022-12-03T09:47:49.825Z,91.40
2022-12-03T09:49:22.026Z,91.65
2022-12-03T09:50:54.043Z,91.58
2022-12-03T09:52:27.924Z,91.84
2022-12-03T09:54:02.350Z,91.85
2022-12-03T09:55:34.335Z,92.01
2022-12-03T09:57:07.425Z,92.24
2022-12-03T09:58:39.489Z,92.10
2022-12-03T10:00:24.597Z,91.98
2022-12-03T10:01:56.671Z,91.70
2022-12-03T10:03:30.608Z,91.62
2022-12-03T10:05:02.708Z,91.82
2022-12-03T10:06:34.902Z,91.80
2022-12-03T10:08:12.556Z,91.81
2022-12-03T10:09:44.675Z,92.04
2022-12-03T10:11:18.207Z,92.01
2022-12-03T10:12:51.177Z,91.87
2022-12-03T10:14:23.469Z,91.79
2022-12-03T10:15:57.103Z,91.93
2022-12-03T10:17:29.086Z,91.92
2022-12-03T10:19:01.757Z,91.85
2022-12-03T10:20:33.800Z,91.57
2022-12-03T10:22:05.858Z,91.80
2022-12-03T10:25:13.855Z,91.66
2022-12-03T10:26:47.171Z,91.86
2022-12-03T10:28:34.051Z,91.78
2022-12-03T10:30:19.967Z,91.68
2022-12-03T10:31:59.537Z,91.73
2022-12-03T10:33:34.544Z,91.75
2022-12-03T10:35:15.695Z,91.65
2022-12-03T10:36:47.771Z,91.14
2022-12-03T10:38:23.520Z,91.11
2022-12-03T10:40:00.713Z,91.19
2022-12-03T10:41:32.823Z,91.29
2022-12-03T10:43:20.125Z,91.28
2022-12-03T10:45:22.949Z,91.48
2022-12-03T10:47:27.217Z,91.53
2022-12-03T10:49:17.525Z,91.70
2022-12-03T10:51:02.638Z,91.63
2022-12-03T10:52:34.737Z,91.61
2022-12-03T10:54:19.402Z,91.76
2022-12-03T10:55:52.395Z,91.91
2022-12-03T10:57:24.506Z,91.64
2022-12-03T10:58:56.708Z,91.45
2022-12-03T11:00:28.909Z,91.32
2022-12-03T11:02:04.072Z,91.28
2022-12-03T11:03:36.965Z,91.22
2022-12-03T11:05:17.423Z,90.89
2022-12-03T11:06:50.712Z,90.88
2022-12-03T11:08:25.593Z,90.77
2022-12-03T11:09:59.290Z,90.76
2022-12-03T11:11:31.690Z,90.96
2022-12-03T11:13:34.808Z,91.01
2022-12-03T11:15:07.817Z,91.28
2022-12-03T11:16:39.938Z,90.99
2022-12-03T11:18:12.091Z,91.06
2022-12-03T11:19:46.598Z,90.83
2022-12-03T11:21:18.768Z,90.67
2022-12-03T11:24:22.694Z,90.13
2022-12-03T11:25:54.763Z,89.90
2022-12-03T11:27:26.963Z,89.90
2022-12-03T11:28:59.858Z,89.83
2022-12-03T11:30:53.687Z,89.64
2022-12-03T11:32:44.108Z,89.73
2022-12-03T11:34:19.750Z,90.10
2022-12-03T11:36:04.002Z,90.88
2022-12-03T11:37:36.136Z,91.05
2022-12-03T11:39:08.882Z,91.54
2022-12-03T11:40:40.955Z,91.70
2022-12-03T11:42:28.060Z,91.73
2022-12-03T11:44:03.235Z,92.32
2022-12-03T11:45:37.934Z,92.12
2022-12-03T11:47:15.042Z,92.27
2022-12-03T11:48:48.044Z,91.86
2022-12-03T11:50:23.809Z,91.77
2022-12-03T11:51:56.787Z,91.50
2022-12-03T11:53:31.809Z,91.64
2022-12-03T11:55:22.013Z,91.65
2022-12-03T11:56:54.774Z,91.53
2022-12-03T11:58:29.435Z,91.52
2022-12-03T12:00:22.582Z,91.69
2022-12-03T12:01:54.590Z,91.32
2022-12-03T12:03:26.698Z,90.88
2022-12-03T12:05:19.226Z,90.61
2022-12-03T12:06:53.440Z,90.79
2022-12-03T12:08:25.696Z,90.92
2022-12-03T12:09:58.122Z,90.98
2022-12-03T12:11:39.111Z,90.85
2022-12-03T12:13:34.218Z,90.63
2022-12-03T12:15:38.239Z,90.69
2022-12-03T12:17:32.660Z,90.64
2022-12-03T12:19:31.034Z,90.61
2022-12-03T12:21:43.405Z,90.28
2022-12-03T12:23:23.532Z,90.18
2022-12-03T12:25:02.979Z,90.33
2022-12-03T12:26:34.992Z,90.34
2022-12-03T12:28:07.535Z,90.77
2022-12-03T12:29:40.866Z,90.54
2022-12-03T12:31:13.034Z,90.66
2022-12-03T12:32:48.066Z,90.74
2022-12-03T12:34:20.087Z,90.85
2022-12-03T12:35:52.197Z,90.81
2022-12-03T12:37:44.934Z,90.70
2022-12-03T12:39:19.222Z,90.59
2022-12-03T12:40:51.407Z,90.60
2022-12-03T12:42:32.454Z,90.75
2022-12-03T12:44:13.681Z,90.69
2022-12-03T12:45:46.379Z,90.84
2022-12-03T12:47:18.442Z,90.48
2022-12-03T12:48:50.466Z,90.61
2022-12-03T12:50:22.585Z,90.69
2022-12-03T12:51:54.684Z,90.78
2022-12-03T12:53:29.917Z,90.68
2022-12-03T12:55:05.143Z,90.62
2022-12-03T12:56:37.864Z,90.63
2022-12-03T12:58:17.025Z,90.44
2022-12-03T12:59:49.669Z,90.41
2022-12-03T13:01:22.852Z,90.46
2022-12-03T13:02:59.529Z,90.27
2022-12-03T13:04:31.613Z,90.28
2022-12-03T13:06:04.156Z,90.20
2022-12-03T13:07:36.331Z,90.15
2022-12-03T13:09:20.814Z,90.27
2022-12-03T13:11:03.191Z,90.06
2022-12-03T13:12:35.141Z,89.89
2022-12-03T13:14:24.444Z,89.98
2022-12-03T13:16:41.567Z,89.58
2022-12-03T13:18:19.651Z,89.49
2022-12-03T13:20:01.940Z,89.61
2022-12-03T13:21:43.389Z,89.73
2022-12-03T13:23:35.209Z,89.29
2022-12-03T13:25:58.170Z,89.31
2022-12-03T13:27:31.428Z,89.38
2022-12-03T13:29:07.645Z,89.49
2022-12-03T13:30:39.644Z,89.48
2022-12-03T13:32:15.454Z,89.48
2022-12-03T13:33:47.637Z,89.37
2022-12-03T13:35:35.834Z,89.26
2022-12-03T13:37:14.731Z,89.38
2022-12-03T13:38:47.128Z,89.52
2022-12-03T13:40:36.207Z,89.28
2022-12-03T13:42:42.060Z,89.31
2022-12-03T13:44:17.299Z,89.05
2022-12-03T13:45:50.406Z,89.18
2022-12-03T13:47:25.683Z,89.28
2022-12-03T13:49:01.722Z,89.46
2022-12-03T13:50:42.200Z,89.48
2022-12-03T13:52:17.697Z,89.46
2022-12-03T13:53:49.805Z,89.27
2022-12-03T13:55:32.192Z,89.64
2022-12-03T13:57:06.204Z,89.22
2022-12-03T13:58:38.372Z,89.55
2022-12-03T14:00:11.424Z,89.68
2022-12-03T14:01:44.928Z,89.62
2022-12-03T14:03:17.080Z,89.71
2022-12-03T14:04:49.188Z,89.76
2022-12-03T14:06:21.926Z,89.76
2022-12-03T14:07:54.097Z,89.83
2022-12-03T14:09:26.131Z,89.76
2022-12-03T14:11:00.588Z,89.53
2022-12-03T14:12:34.177Z,89.86
2022-12-03T14:14:06.353Z,89.86
2022-12-03T14:15:38.460Z,89.98
2022-12-03T14:17:11.910Z,89.93
2022-12-03T14:18:43.896Z,89.78
2022-12-03T14:20:16.146Z,89.92
2022-12-03T14:21:48.208Z,90.16
2022-12-03T14:23:20.272Z,89.94
2022-12-03T14:24:53.265Z,89.90
2022-12-03T14:26:25.306Z,89.93
2022-12-03T14:27:57.524Z,89.50
2022-12-03T14:29:29.745Z,89.93
2022-12-03T14:31:01.837Z,89.94
2022-12-03T14:32:33.943Z,89.81
2022-12-03T14:34:06.102Z,89.91
2022-12-03T14:35:38.228Z,90.08
2022-12-03T14:37:10.564Z,90.23
2022-12-03T14:38:42.680Z,90.28
2022-12-03T14:40:19.743Z,90.24
2022-12-03T14:42:12.010Z,90.28
2022-12-03T14:43:44.085Z,90.16
2022-12-03T14:45:16.122Z,90.29
2022-12-03T14:46:51.580Z,90.28
2022-12-03T14:48:26.025Z,90.22
2022-12-03T14:49:58.124Z,90.13
2022-12-03T14:53:02.000Z,90.02
2022-12-03T14:54:34.359Z,90.06
2022-12-03T14:56:06.487Z,89.94
2022-12-03T14:57:38.585Z,90.05
2022-12-03T14:59:10.953Z,90.07
2022-12-03T15:00:43.078Z,89.79
2022-12-03T15:02:15.152Z,89.99
2022-12-03T15:03:47.238Z,90.00
2022-12-03T15:05:28.043Z,90.14
2022-12-03T15:07:00.738Z,90.02
2022-12-03T15:08:32.813Z,90.19
2022-12-03T15:10:06.559Z,90.32
2022-12-03T15:11:42.969Z,90.35
2022-12-03T15:13:17.932Z,90.25
2022-12-03T15:14:50.383Z,90.20
2022-12-03T15:16:22.471Z,89.96
2022-12-03T15:17:54.612Z,90.48
2022-12-03T15:19:26.823Z,90.24
2022-12-03T15:21:02.456Z,90.56
2022-12-03T15:22:34.500Z,90.46
2022-12-03T15:24:06.971Z,90.39
2022-12-03T15:25:39.043Z,90.38
2022-12-03T15:27:11.094Z,90.58
2022-12-03T15:28:48.049Z,90.47
2022-12-03T15:30:21.051Z,90.56
2022-12-03T15:31:53.201Z,90.47
2022-12-03T15:33:26.030Z,90.39
2022-12-03T15:34:58.530Z,90.39
2022-12-03T15:36:33.573Z,90.36
2022-12-03T15:38:05.798Z,90.48
2022-12-03T15:39:38.931Z,90.26
2022-12-03T15:41:24.963Z,90.48
2022-12-03T15:42:57.053Z,90.13
2022-12-03T15:44:29.045Z,90.54
2022-12-03T15:46:01.114Z,90.51
2022-12-03T15:47:33.952Z,90.33
2022-12-03T15:49:06.131Z,90.25
2022-12-03T15:50:40.308Z,90.38
2022-12-03T15:52:12.618Z,90.75
2022-12-03T15:53:44.681Z,90.81
2022-12-03T15:55:17.012Z,90.64
2022-12-03T15:56:52.778Z,91.01
2022-12-03T15:58:29.246Z,91.17
2022-12-03T16:00:01.345Z,90.89
2022-12-03T16:01:33.504Z,91.05
2022-12-03T16:03:06.793Z,91.06
2022-12-03T16:04:38.812Z,90.98
2022-12-03T16:06:10.880Z,91.27
2022-12-03T16:07:43.103Z,91.23
2022-12-03T16:09:15.169Z,91.41
2022-12-03T16:10:48.331Z,91.52
2022-12-03T16:12:20.399Z,91.62
2022-12-03T16:13:52.464Z,91.44
2022-12-03T16:15:27.275Z,91.70
2022-12-03T16:17:00.485Z,91.74
2022-12-03T16:18:32.557Z,91.86
2022-12-03T16:20:05.595Z,91.69
2022-12-03T16:21:37.662Z,91.82
2022-12-03T16:23:09.853Z,92.01
2022-12-03T16:24:41.892Z,91.93
2022-12-03T16:26:13.855Z,92.14
2022-12-03T16:27:45.904Z,91.92
2022-12-03T16:29:18.053Z,92.19
2022-12-03T16:30:50.131Z,91.88
2022-12-03T16:32:22.695Z,92.17
2022-12-03T16:33:55.145Z,92.35
2022-12-03T16:35:27.218Z,92.36
2022-12-03T16:36:59.293Z,92.34
2022-12-03T16:38:31.442Z,92.37
2022-12-03T16:40:06.112Z,92.70
2022-12-03T16:41:38.168Z,92.45
2022-12-03T16:43:10.995Z,92.56
2022-12-03T16:45:15.243Z,92.52
2022-12-03T16:46:47.554Z,92.39
2022-12-03T16:48:19.672Z,92.59
2022-12-03T16:49:52.116Z,92.49
2022-12-03T16:51:26.192Z,92.54
2022-12-03T16:52:58.512Z,92.65
2022-12-03T16:54:30.605Z,92.79
2022-12-03T16:56:02.774Z,92.78
2022-12-03T16:57:34.832Z,93.06
2022-12-03T16:59:06.885Z,93.00
2022-12-03T17:00:38.999Z,93.08
2022-12-03T17:02:11.919Z,93.02
2022-12-03T17:03:44.026Z,92.97
2022-12-03T17:06:49.068Z,93.15
2022-12-03T17:08:21.542Z,93.16
2022-12-03T17:09:53.910Z,92.92
2022-12-03T17:11:26.174Z,93.02
2022-12-03T17:13:09.268Z,92.81
2022-12-03T17:14:41.942Z,92.94
2022-12-03T17:16:14.455Z,92.89
2022-12-03T17:17:46.587Z,93.13
2022-12-03T17:19:18.706Z,93.12
2022-12-03T17:20:50.904Z,93.01
2022-12-03T17:22:22.993Z,93.07
2022-12-03T17:23:54.985Z,93.03
2022-12-03T17:25:27.876Z,93.13
2022-12-03T17:26:59.858Z,93.16
2022-12-03T17:28:31.981Z,93.28
2022-12-03T17:30:05.446Z,93.41
2022-12-03T17:31:41.901Z,93.34
2022-12-03T17:33:14.607Z,93.07
2022-12-03T17:34:46.643Z,93.30
2022-12-03T17:36:21.565Z,93.42
2022-12-03T17:37:53.716Z,93.20
2022-12-03T17:39:25.757Z,93.07
2022-12-03T17:40:57.953Z,93.26
2022-12-03T17:42:29.984Z,93.36
2022-12-03T17:44:07.281Z,93.46
2022-12-03T17:45:43.673Z,93.17
2022-12-03T17:47:15.777Z,93.31
2022-12-03T17:48:47.892Z,93.19
2022-12-03T17:50:19.918Z,93.36
2022-12-03T17:51:51.973Z,93.42
2022-12-03T17:53:24.777Z,93.33
2022-12-03T17:55:17.790Z,93.34
2022-12-03T17:56:49.742Z,93.20
2022-12-03T17:58:22.020Z,93.24
2022-12-03T17:59:54.196Z,93.53
2022-12-03T18:01:26.655Z,93.43
2022-12-03T18:02:58.706Z,93.47
2022-12-03T18:04:30.833Z,93.56
2022-12-03T18:06:03.871Z,93.63
2022-12-03T18:07:35.995Z,93.42
2022-12-03T18:10:39.776Z,93.55
2022-12-03T18:12:11.842Z,93.42
2022-12-03T18:13:43.987Z,93.69
2022-12-03T18:15:16.104Z,93.59
2022-12-03T18:16:48.133Z,93.60
2022-12-03T18:18:20.225Z,93.37
2022-12-03T18:19:52.664Z,93.59
2022-12-03T18:21:27.556Z,93.51
2022-12-03T18:22:59.861Z,93.56
2022-12-03T18:24:31.881Z,93.28
2022-12-03T18:26:04.823Z,93.50
2022-12-03T18:27:36.906Z,93.55
2022-12-03T18:29:08.999Z,93.39
2022-12-03T18:30:41.056Z,93.38
2022-12-03T18:32:27.716Z,93.45
2022-12-03T18:34:01.354Z,93.25
2022-12-03T18:35:33.364Z,93.16
2022-12-03T18:37:06.240Z,93.30
2022-12-03T18:40:20.421Z,93.36
2022-12-03T18:41:53.371Z,93.03
2022-12-03T18:43:26.809Z,93.18
2022-12-03T18:44:58.869Z,93.05
2022-12-03T18:46:52.273Z,93.21
2022-12-03T18:48:22.830Z,93.22
2022-12-03T18:49:55.499Z,93.31
2022-12-03T18:51:28.979Z,93.50
2022-12-03T18:53:00.953Z,93.16
2022-12-03T18:54:33.167Z,93.42
2022-12-03T18:56:05.464Z,93.61
2022-12-03T18:57:37.493Z,93.52
2022-12-03T18:59:09.618Z,93.69
2022-12-03T19:00:42.803Z,93.52
2022-12-03T19:04:13.626Z,93.45
2022-12-03T19:05:45.706Z,93.48
2022-12-03T19:07:17.714Z,93.77
2022-12-03T19:08:54.267Z,93.48
2022-12-03T19:10:26.490Z,93.72
2022-12-03T19:11:58.827Z,93.67
2022-12-03T19:13:30.911Z,93.53
2022-12-03T19:15:03.903Z,93.38
2022-12-03T19:16:36.481Z,93.56
2022-12-03T19:18:08.716Z,93.46
2022-12-03T19:19:40.697Z,93.54
2022-12-03T19:21:16.102Z,93.45
2022-12-03T19:22:48.215Z,93.45
2022-12-03T19:24:25.033Z,93.31
2022-12-03T19:25:59.521Z,93.20
2022-12-03T19:27:32.510Z,93.22
2022-12-03T19:29:04.695Z,93.15
2022-12-03T19:30:36.755Z,93.30
2022-12-03T19:32:09.243Z,93.13
2022-12-03T19:33:42.970Z,93.07
2022-12-03T19:35:14.999Z,93.05
2022-12-03T19:36:47.755Z,92.96
2022-12-03T19:38:19.778Z,92.89
2022-12-03T19:39:54.829Z,92.91
2022-12-03T19:41:28.906Z,92.81
2022-12-03T19:43:01.051Z,92.80
2022-12-03T19:44:33.778Z,92.74
2022-12-03T19:46:10.901Z,92.73
2022-12-03T19:47:43.160Z,92.59
2022-12-03T19:49:17.069Z,92.66
2022-12-03T19:51:07.631Z,92.63
2022-12-03T19:52:43.310Z,92.61
2022-12-03T19:54:15.620Z,92.53
2022-12-03T19:55:47.900Z,92.58
2022-12-03T19:57:23.410Z,92.59
2022-12-03T19:58:56.243Z,92.54
2022-12-03T20:00:28.238Z,92.51
2022-12-03T20:02:00.657Z,92.36
2022-12-03T20:03:32.965Z,92.52
2022-12-03T20:05:05.227Z,92.40
2022-12-03T20:06:40.647Z,92.17
2022-12-03T20:08:12.782Z,92.15
2022-12-03T20:09:44.814Z,92.04
2022-12-03T20:11:22.794Z,91.75
2022-12-03T20:12:54.850Z,91.78
2022-12-03T20:14:26.930Z,91.82
2022-12-03T20:16:03.560Z,91.91
2022-12-03T20:17:35.634Z,91.86
2022-12-03T20:19:08.739Z,92.11
2022-12-03T20:20:40.810Z,91.78
2022-12-03T20:22:12.900Z,91.85
2022-12-03T20:23:45.237Z,91.69
2022-12-03T20:25:17.382Z,91.81
2022-12-03T20:26:49.377Z,91.78
2022-12-03T20:28:21.402Z,91.56
2022-12-03T20:29:53.620Z,91.59
2022-12-03T20:31:28.609Z,91.51
2022-12-03T20:33:00.589Z,91.38
2022-12-03T20:34:34.397Z,91.58
2022-12-03T20:36:07.108Z,91.51
2022-12-03T20:37:39.189Z,91.53
2022-12-03T20:39:11.248Z,91.50
2022-12-03T20:40:43.224Z,91.46
2022-12-03T20:42:15.306Z,91.30
2022-12-03T20:43:47.764Z,91.14